createdAt,value
2017-12-13T00:00:19.674Z,90.72
2017-12-13T00:01:23.975Z,90.67
2017-12-13T00:02:28.181Z,90.69
2017-12-13T00:03:33.028Z,90.75
2017-12-13T00:04:37.339Z,90.91
2017-12-13T00:05:41.548Z,90.84
2017-12-13T00:06:45.856Z,91.06
2017-12-13T00:07:50.236Z,91.05
2017-12-13T00:08:55.119Z,90.94
2017-12-13T00:09:59.314Z,90.73
2017-12-13T00:11:03.670Z,90.62
2017-12-13T00:12:08.768Z,90.52
2017-12-13T00:13:12.998Z,91.02
2017-12-13T00:14:17.230Z,91.01
2017-12-13T00:15:22.141Z,91.49
2017-12-13T00:16:26.789Z,91.69
2017-12-13T00:17:31.039Z,91.97
2017-12-13T00:18:35.332Z,91.74
2017-12-13T00:19:39.645Z,91.33
2017-12-13T00:20:43.822Z,91.01
2017-12-13T00:21:48.348Z,91.03
2017-12-13T00:22:52.757Z,90.91
2017-12-13T00:23:57.082Z,90.68
2017-12-13T00:25:01.728Z,90.84
2017-12-13T00:26:06.482Z,91.09
2017-12-13T00:27:10.762Z,91.00
2017-12-13T00:28:15.268Z,91.12
2017-12-13T00:29:19.498Z,90.91
2017-12-13T00:30:24.006Z,90.92
2017-12-13T00:32:41.828Z,91.34
2017-12-13T00:33:46.019Z,91.50
2017-12-13T00:34:50.688Z,91.46
2017-12-13T00:35:55.306Z,91.48
2017-12-13T00:36:59.548Z,91.25
2017-12-13T00:38:04.439Z,91.11
2017-12-13T00:39:15.481Z,90.34
2017-12-13T00:40:19.735Z,90.11
2017-12-13T00:41:28.992Z,90.56
2017-12-13T00:42:33.263Z,90.47
2017-12-13T00:43:37.437Z,90.46
2017-12-13T00:44:41.623Z,90.76
2017-12-13T00:45:47.191Z,90.94
2017-12-13T00:46:51.736Z,91.06
2017-12-13T00:47:56.130Z,91.05
2017-12-13T00:49:00.552Z,91.10
2017-12-13T00:50:04.376Z,91.10
2017-12-13T00:51:09.510Z,91.12
2017-12-13T00:52:13.748Z,90.80
2017-12-13T00:53:19.132Z,91.14
2017-12-13T00:54:23.413Z,91.27
2017-12-13T00:55:27.799Z,91.03
2017-12-13T00:56:32.212Z,90.85
2017-12-13T00:57:36.390Z,91.14
2017-12-13T00:58:40.694Z,91.02
2017-12-13T00:59:45.251Z,90.45
2017-12-13T01:00:49.653Z,90.68
2017-12-13T01:01:53.958Z,90.81
2017-12-13T01:02:58.237Z,90.81
2017-12-13T01:04:02.581Z,90.99
2017-12-13T01:05:06.700Z,91.31
2017-12-13T01:06:11.270Z,91.23
2017-12-13T01:07:15.445Z,91.06
2017-12-13T01:08:19.883Z,90.34
2017-12-13T01:09:24.152Z,90.28
2017-12-13T01:10:28.394Z,90.45
2017-12-13T01:11:32.689Z,90.32
2017-12-13T01:12:37.168Z,90.46
2017-12-13T01:13:41.796Z,90.45
2017-12-13T01:14:46.559Z,90.00
2017-12-13T01:15:51.235Z,90.09
2017-12-13T01:16:55.656Z,90.28
2017-12-13T01:18:00.365Z,90.46
2017-12-13T01:19:05.175Z,90.46
2017-12-13T01:20:10.863Z,90.88
2017-12-13T01:21:15.074Z,90.87
2017-12-13T01:22:19.487Z,91.09
2017-12-13T01:23:23.698Z,91.07
2017-12-13T01:24:32.615Z,91.35
2017-12-13T01:25:36.857Z,91.13
2017-12-13T01:26:41.587Z,91.27
2017-12-13T01:27:46.038Z,91.33
2017-12-13T01:28:50.274Z,91.37
2017-12-13T01:29:54.741Z,91.21
2017-12-13T01:30:59.969Z,91.17
2017-12-13T01:32:04.579Z,91.34
2017-12-13T01:33:09.026Z,91.12
2017-12-13T01:34:14.029Z,91.21
2017-12-13T01:35:18.509Z,91.16
2017-12-13T01:36:22.759Z,91.17
2017-12-13T01:37:27.030Z,91.29
2017-12-13T01:38:31.171Z,91.34
2017-12-13T01:39:35.378Z,91.26
2017-12-13T01:40:39.887Z,91.08
2017-12-13T01:41:44.138Z,91.18
2017-12-13T01:42:48.616Z,91.10
2017-12-13T01:43:53.030Z,91.03
2017-12-13T01:44:57.263Z,91.16
2017-12-13T01:46:01.926Z,91.08
2017-12-13T01:47:06.799Z,90.45
2017-12-13T01:48:11.161Z,90.60
2017-12-13T01:49:15.881Z,90.48
2017-12-13T01:51:45.488Z,90.76
2017-12-13T01:55:50.197Z,91.29
2017-12-13T01:56:54.714Z,90.75
2017-12-13T01:57:59.031Z,90.91
2017-12-13T01:59:04.061Z,91.35
2017-12-13T02:00:25.644Z,91.92
2017-12-13T02:01:37.327Z,91.94
2017-12-13T02:02:42.324Z,91.69
2017-12-13T02:03:47.348Z,91.32
2017-12-13T02:04:52.333Z,90.91
2017-12-13T02:05:59.173Z,90.74
2017-12-13T02:07:13.894Z,90.31
2017-12-13T02:08:24.996Z,90.58
2017-12-13T02:09:33.530Z,90.76
2017-12-13T02:10:38.497Z,90.83
2017-12-13T02:11:42.768Z,90.93
2017-12-13T02:12:48.546Z,90.60
2017-12-13T02:13:53.387Z,90.51
